»·PEaware :: AAL2063 KPHX-KLAS

AAL2063 :: KPHX-KLAS

FLIGHT INFORMATION

Flight Status: Arrived
Operator:
American Airlines
More flights by this operator :: More flights under this callsign
Pilot: Brandon G. (13)
Aircraft: AIRBUS A320
(A320)
More flights by this aircraft type
Origin: KPHX Phoenix Sky Harbor Intl
United States
Destination: KLAS McCarran Intl
United States
More flights between these airports :: More routes between these airports
Route: ZEPER1 SISIE IGM TYSSN5
File this flight plan on PilotEdge
Remarks:
Altitude:
(Current/Filed)
28,000ft
Speed:
(Current/Filed)
470kts
Departed: 10-Oct-18 12:53 PM
Arrived: 10-Oct-18 01:37 PM
Distance/Time
Traveled:
221nm/0:43
Distance/Time
To Go:
Arrived

Flight Plot

Page will automatically refresh every two minutes.

Flight plan parsing failed; only flown route is shown


Map Options




Map Legend


Flown Route
Filed Route
Departure Airport
Arrival Airport
Navaid (VOR, NDB)
Fix

Horizontal Profiles

Position Reports

Time Latitude Longitude Heading Altitude Ground
Speed
10-Oct-18 12:25 33.437176 -111.999801 90 1131ft 0kts
10-Oct-18 12:26 33.437176 -111.999801 90 1131ft 0kts
10-Oct-18 12:27 33.437176 -111.999801 90 1131ft 0kts
10-Oct-18 12:28 33.437176 -111.999801 90 1131ft 0kts
10-Oct-18 12:29 33.437176 -111.999801 90 1131ft 0kts
10-Oct-18 12:30 33.437176 -111.999802 90 1131ft 0kts
10-Oct-18 12:31 33.437176 -111.999802 90 1131ft 0kts
10-Oct-18 12:32 33.437176 -111.999802 90 1131ft 0kts
10-Oct-18 12:33 33.437176 -111.999802 90 1131ft 0kts
10-Oct-18 12:34 33.437176 -111.999802 90 1131ft 0kts
10-Oct-18 12:35 33.437176 -111.999802 90 1131ft 0kts
10-Oct-18 12:36 33.437176 -111.999802 90 1131ft 0kts
10-Oct-18 12:37 33.437176 -111.999802 90 1131ft 0kts
10-Oct-18 12:38 33.437176 -111.999802 90 1131ft 0kts
10-Oct-18 12:39 33.437176 -111.999802 90 1131ft 0kts
10-Oct-18 12:40 33.437176 -111.999802 90 1131ft 0kts
10-Oct-18 12:41 33.437176 -111.999802 90 1131ft 0kts
10-Oct-18 12:42 33.437176 -111.999802 90 1131ft 0kts
10-Oct-18 12:43 33.437176 -111.999802 90 1131ft 0kts
10-Oct-18 12:44 33.437176 -111.999802 90 1131ft 0kts
10-Oct-18 12:45 33.437177 -111.999871 92 1131ft 2kts
10-Oct-18 12:46 33.436871 -112.000313 356 1131ft 1kts
10-Oct-18 12:47 33.436846 -112.000312 358 1131ft 0kts
10-Oct-18 12:48 33.436846 -112.000312 358 1131ft 0kts
10-Oct-18 12:49 33.436890 -112.000313 358 1131ft 0kts
10-Oct-18 12:50 33.438214 -112.000324 0 1131ft 12kts
10-Oct-18 12:51 33.439725 -112.002866 268 1131ft 12kts
10-Oct-18 12:52 33.439748 -112.008385 269 1131ft 23kts
10-Oct-18 12:53 33.439757 -112.017387 269 1123ft 28kts
10-Oct-18 12:54 33.439769 -112.027443 270 1117ft 31kts
10-Oct-18 12:55 33.440857 -112.016576 89 1125ft 141kts
10-Oct-18 12:56 33.439029 -111.952049 96 3811ft 195kts
10-Oct-18 12:57 33.437605 -111.874303 73 5816ft 278kts
10-Oct-18 12:58 33.506515 -111.836876 358 8884ft 307kts
10-Oct-18 12:59 33.579609 -111.836960 358 10937ft 339kts
10-Oct-18 13:00 33.681592 -111.841893 348 12574ft 385kts
10-Oct-18 13:01 33.777657 -111.922867 302 15242ft 381kts
10-Oct-18 13:02 33.830067 -112.009199 302 17034ft 389kts
10-Oct-18 13:03 33.894730 -112.115382 301 18996ft 397kts
10-Oct-18 13:04 33.960388 -112.223432 301 20755ft 405kts
10-Oct-18 13:05 34.028172 -112.332722 308 22328ft 417kts
10-Oct-18 13:06 34.115930 -112.423015 315 23735ft 428kts
10-Oct-18 13:07 34.207692 -112.515462 315 25067ft 433kts
10-Oct-18 13:08 34.300190 -112.608899 314 26269ft 439kts
10-Oct-18 13:09 34.408013 -112.718150 314 27681ft 441kts
10-Oct-18 13:10 34.485724 -112.797143 314 28082ft 438kts
10-Oct-18 13:11 34.580496 -112.894606 312 28082ft 456kts
10-Oct-18 13:12 34.690179 -113.014359 312 28082ft 458kts
10-Oct-18 13:13 34.768815 -113.100456 312 28063ft 459kts
10-Oct-18 13:14 34.863023 -113.203910 312 28026ft 459kts
10-Oct-18 13:15 34.957000 -113.307459 312 27972ft 459kts
10-Oct-18 13:16 35.028893 -113.432714 295 28005ft 450kts
10-Oct-18 13:17 35.089797 -113.563890 295 27659ft 430kts
10-Oct-18 13:18 35.141874 -113.676463 295 26453ft 402kts
10-Oct-18 13:19 35.195696 -113.793092 294 24587ft 388kts
10-Oct-18 13:20 35.247280 -113.905261 294 22774ft 374kts
10-Oct-18 13:21 35.322564 -113.991655 318 20914ft 375kts
10-Oct-18 13:22 35.404012 -114.067433 318 19115ft 364kts
10-Oct-18 13:23 35.483291 -114.141334 318 17360ft 354kts
10-Oct-18 13:24 35.560452 -114.213240 319 15630ft 345kts
10-Oct-18 13:25 35.635493 -114.283351 319 13936ft 337kts
10-Oct-18 13:26 35.708970 -114.352161 319 12367ft 326kts
10-Oct-18 13:27 35.784480 -114.403143 336 11730ft 312kts
10-Oct-18 13:28 35.877601 -114.446689 336 11041ft 306kts
10-Oct-18 13:29 35.943164 -114.477400 336 10563ft 301kts
10-Oct-18 13:30 35.989971 -114.548790 283 9239ft 278kts
10-Oct-18 13:31 36.009313 -114.639715 284 7824ft 273kts
10-Oct-18 13:32 36.028057 -114.727704 285 6370ft 272kts
10-Oct-18 13:33 36.046565 -114.814820 285 5189ft 261kts
10-Oct-18 13:34 36.064295 -114.898632 286 5040ft 234kts
10-Oct-18 13:35 36.074048 -114.973476 270 4512ft 211kts
10-Oct-18 13:36 36.073791 -115.037510 270 3453ft 162kts
10-Oct-18 13:37 36.073719 -115.092760 270 2619ft 160kts
10-Oct-18 13:38 36.073624 -115.143565 270 2097ft 87kts
10-Oct-18 13:39 36.074962 -115.150950 313 2123ft 0kts
10-Oct-18 13:40 36.078002 -115.150356 92 2114ft 21kts
10-Oct-18 13:41 36.078269 -115.143242 92 2089ft 24kts
10-Oct-18 13:42 36.079519 -115.136017 49 2066ft 15kts
10-Oct-18 13:43 36.080016 -115.135645 26 2064ft 0kts
10-Oct-18 13:44 36.080016 -115.135645 26 2064ft 0kts
10-Oct-18 13:45 36.080016 -115.135645 26 2064ft 0kts

Navigation Log

Ident Type
Flight plan parsing failed, navigation log unavailable